Time;durP1;ratioP1;P1;durP2;ratioP2;P2;SDS_P1;SDS_P2;PMS_P1;PMS_P2;Temp;Humidity;BMP_temperature;BMP_pressure;BME280_temperature;BME280_humidity;BME280_pressure;Samples;Min_cycle;Max_cycle;Signal;HPM_P1;HPM_P2
2021/10/11 00:02:20;;;;;;;17.48;10.20;;;8.10;99.90;;;;;;5049152;28;20028;-45
2021/10/11 00:04:45;;;;;;;18.75;10.20;;;8.10;99.90;;;;;;5067947;28;20071;-47
2021/10/11 00:07:11;;;;;;;20.48;10.27;;;8.10;99.90;;;;;;5067369;28;20501;-46
2021/10/11 00:09:36;;;;;;;15.13;10.35;;;8.00;99.90;;;;;;5067967;28;20063;-46
2021/10/11 00:12:04;;;;;;;19.55;10.35;;;8.00;99.90;;;;;;5068117;28;20558;-47
2021/10/11 00:14:29;;;;;;;20.40;9.88;;;8.00;99.90;;;;;;5067553;28;20115;-46
2021/10/11 00:16:55;;;;;;;15.20;9.65;;;8.00;99.90;;;;;;5067061;28;20136;-47
2021/10/11 00:19:20;;;;;;;16.90;10.32;;;8.00;99.90;;;;;;5067392;28;20045;-48
2021/10/11 00:21:46;;;;;;;19.33;11.05;;;8.00;99.90;;;;;;5067936;28;20032;-48
2021/10/11 00:24:12;;;;;;;17.23;10.88;;;8.00;99.90;;;;;;5067771;28;20036;-47
2021/10/11 00:26:38;;;;;;;16.00;10.40;;;8.00;99.90;;;;;;5067750;28;20039;-46
2021/10/11 00:29:04;;;;;;;16.00;10.40;;;7.90;99.90;;;;;;5066838;28;20055;-46
2021/10/11 00:31:30;;;;;;;21.45;12.30;;;7.90;99.90;;;;;;5067462;28;20086;-46
2021/10/11 00:33:59;;;;;;;17.38;10.95;;;7.90;99.90;;;;;;5067208;28;20055;-47
2021/10/11 00:36:24;;;;;;;17.95;11.05;;;7.90;99.90;;;;;;5067539;28;20430;-46
2021/10/11 00:38:50;;;;;;;16.95;10.93;;;7.90;99.90;;;;;;5067300;28;20067;-46
2021/10/11 00:41:16;;;;;;;19.38;10.88;;;7.90;99.90;;;;;;5067470;28;20405;-46
2021/10/11 00:43:42;;;;;;;17.85;10.27;;;8.00;99.90;;;;;;5067695;28;20512;-47
2021/10/11 00:46:08;;;;;;;22.83;12.75;;;7.90;99.90;;;;;;5067361;28;20489;-48
2021/10/11 00:48:37;;;;;;;20.27;10.98;;;7.90;99.90;;;;;;5066584;28;20060;-47
2021/10/11 00:51:04;;;;;;;16.60;10.63;;;8.00;99.90;;;;;;5067044;28;20037;-47
2021/10/11 00:53:30;;;;;;;17.23;9.55;;;8.00;99.90;;;;;;5067045;28;20550;-48
2021/10/11 00:55:56;;;;;;;18.73;10.73;;;8.00;99.90;;;;;;5067438;28;20044;-46
2021/10/11 00:58:21;;;;;;;21.25;11.05;;;8.00;99.90;;;;;;5048650;28;20028;-46
2021/10/11 01:00:47;;;;;;;14.30;10.48;;;8.00;99.90;;;;;;5067272;28;20478;-47
2021/10/11 01:03:12;;;;;;;19.88;11.05;;;8.00;99.90;;;;;;5066349;28;20116;-47
2021/10/11 01:05:38;;;;;;;16.40;10.23;;;8.00;99.90;;;;;;5049330;28;20028;-46
2021/10/11 01:08:04;;;;;;;19.48;10.27;;;8.00;99.90;;;;;;5067089;28;20371;-46
2021/10/11 01:10:29;;;;;;;17.17;10.73;;;8.10;99.90;;;;;;5067281;28;20326;-47
2021/10/11 01:12:55;;;;;;;14.52;9.93;;;8.10;99.90;;;;;;5067279;28;20371;-48
2021/10/11 01:15:20;;;;;;;16.83;9.63;;;8.10;99.90;;;;;;5067100;28;20394;-46
2021/10/11 01:17:46;;;;;;;16.23;10.00;;;8.10;99.90;;;;;;5066286;28;20363;-46
2021/10/11 01:20:12;;;;;;;15.80;9.70;;;8.10;99.90;;;;;;5067438;28;20032;-45
2021/10/11 01:22:42;;;;;;;16.77;10.90;;;8.10;99.90;;;;;;5067427;28;20109;-45
2021/10/11 01:25:10;;;;;;;16.23;10.43;;;8.00;99.90;;;;;;5067621;28;20111;-45
2021/10/11 01:27:36;;;;;;;17.70;10.57;;;8.00;99.90;;;;;;5047934;28;20044;-47
2021/10/11 01:30:03;;;;;;;20.48;11.57;;;8.00;99.90;;;;;;5067142;28;20449;-47
2021/10/11 01:32:29;;;;;;;16.13;10.73;;;8.10;99.90;;;;;;5066486;28;20040;-46
2021/10/11 01:34:54;;;;;;;18.75;10.60;;;8.00;99.90;;;;;;5066953;28;20016;-46
2021/10/11 01:37:20;;;;;;;16.75;11.27;;;8.00;99.90;;;;;;5066391;28;20461;-48
2021/10/11 01:39:45;;;;;;;20.33;11.23;;;8.10;99.90;;;;;;5048960;28;20195;-46
2021/10/11 01:42:11;;;;;;;17.92;10.88;;;8.10;99.90;;;;;;5066984;28;20091;-47
2021/10/11 01:44:38;;;;;;;16.10;10.75;;;8.10;99.90;;;;;;5067138;28;20086;-46
2021/10/11 01:47:03;;;;;;;18.67;11.52;;;8.10;99.90;;;;;;5066143;28;20036;-47
2021/10/11 01:49:29;;;;;;;19.00;10.70;;;8.20;99.90;;;;;;5048534;28;20036;-47
2021/10/11 01:51:54;;;;;;;18.48;11.60;;;8.20;99.90;;;;;;5048809;28;20033;-46
2021/10/11 01:54:20;;;;;;;19.27;10.32;;;8.20;99.90;;;;;;5066827;28;20036;-47
2021/10/11 01:56:45;;;;;;;16.98;10.30;;;8.30;99.90;;;;;;5066417;28;20943;-47
2021/10/11 01:59:11;;;;;;;20.83;11.02;;;8.30;99.90;;;;;;5048214;28;20049;-46
2021/10/11 02:01:36;;;;;;;19.70;11.13;;;8.30;99.90;;;;;;5048053;28;20040;-46
2021/10/11 02:04:02;;;;;;;18.85;9.95;;;8.30;99.90;;;;;;5066334;28;20036;-46
2021/10/11 02:06:27;;;;;;;16.25;10.50;;;8.30;99.90;;;;;;5066423;28;20044;-46
2021/10/11 02:08:53;;;;;;;16.65;9.68;;;8.30;99.90;;;;;;5066337;28;20726;-47
2021/10/11 02:11:18;;;;;;;16.27;10.80;;;8.30;99.90;;;;;;5066558;28;20078;-47
2021/10/11 02:13:44;;;;;;;21.50;11.32;;;8.30;99.90;;;;;;5066480;28;20090;-46
2021/10/11 02:16:09;;;;;;;17.70;11.30;;;8.30;99.90;;;;;;5048636;28;20561;-47
2021/10/11 02:18:35;;;;;;;15.57;11.05;;;8.30;99.90;;;;;;5065981;28;20040;-46
2021/10/11 02:21:00;;;;;;;20.05;12.07;;;8.30;99.90;;;;;;5069887;28;20033;-47
2021/10/11 02:23:26;;;;;;;20.30;11.23;;;8.30;99.90;;;;;;5069890;28;20102;-47
2021/10/11 02:25:52;;;;;;;21.92;11.05;;;8.30;99.90;;;;;;5070035;28;20035;-47
2021/10/11 02:28:17;;;;;;;19.05;11.70;;;8.30;99.90;;;;;;5069262;28;20037;-47
2021/10/11 02:30:43;;;;;;;24.10;11.43;;;8.30;99.90;;;;;;5070258;28;20478;-47
2021/10/11 02:33:08;;;;;;;18.58;11.57;;;8.30;99.90;;;;;;5051782;28;20494;-47
2021/10/11 02:35:34;;;;;;;20.80;12.50;;;8.40;99.90;;;;;;5069613;28;20074;-48
2021/10/11 02:37:59;;;;;;;20.45;12.07;;;8.30;99.90;;;;;;5069600;28;20422;-46
2021/10/11 02:40:25;;;;;;;16.70;11.65;;;8.30;99.90;;;;;;5051660;28;20040;-47
2021/10/11 02:42:50;;;;;;;21.10;13.40;;;8.40;99.90;;;;;;5035547;28;20509;-46
2021/10/11 02:45:16;;;;;;;20.30;12.75;;;8.40;99.90;;;;;;5069972;28;20036;-46
2021/10/11 02:47:41;;;;;;;21.88;12.18;;;8.40;99.90;;;;;;5069204;28;20051;-46
2021/10/11 02:50:07;;;;;;;20.83;13.77;;;8.40;99.90;;;;;;5069371;28;20382;-46
2021/10/11 02:52:33;;;;;;;19.00;13.18;;;8.40;99.90;;;;;;5069512;28;20051;-46
2021/10/11 02:55:00;;;;;;;24.13;13.85;;;8.50;99.90;;;;;;5069579;28;20117;-47
2021/10/11 02:57:26;;;;;;;24.65;15.07;;;8.50;99.90;;;;;;5068644;28;20402;-48
2021/10/11 02:59:51;;;;;;;21.38;13.80;;;8.60;99.90;;;;;;5069200;28;20288;-46
2021/10/11 03:02:18;;;;;;;26.52;15.45;;;8.60;99.90;;;;;;5069080;28;20051;-46
2021/10/11 03:04:44;;;;;;;26.77;16.90;;;8.60;99.90;;;;;;5051078;28;20037;-48
2021/10/11 03:07:10;;;;;;;27.92;15.50;;;8.70;99.90;;;;;;5068934;28;20037;-48
2021/10/11 03:09:35;;;;;;;32.72;17.05;;;8.80;99.90;;;;;;5069253;28;20062;-47
2021/10/11 03:12:01;;;;;;;29.33;17.42;;;8.80;99.90;;;;;;5068852;28;20411;-48
2021/10/11 03:14:26;;;;;;;27.52;17.58;;;8.90;99.90;;;;;;5069074;28;20040;-46
2021/10/11 03:16:52;;;;;;;29.90;18.92;;;8.90;99.90;;;;;;5068634;28;20123;-49
2021/10/11 03:19:17;;;;;;;34.92;19.55;;;8.90;99.90;;;;;;5050328;28;20370;-47
2021/10/11 03:21:43;;;;;;;32.17;19.67;;;9.00;99.90;;;;;;5069359;28;20028;-47
2021/10/11 03:24:08;;;;;;;32.53;19.65;;;9.00;99.90;;;;;;5069453;28;20036;-46
2021/10/11 03:26:34;;;;;;;33.15;19.98;;;9.00;99.90;;;;;;5068381;28;20029;-47
2021/10/11 03:28:59;;;;;;;32.40;19.77;;;9.00;99.90;;;;;;5068357;28;20036;-48
2021/10/11 03:31:25;;;;;;;33.33;20.60;;;9.10;99.90;;;;;;5050034;28;20035;-46
2021/10/11 03:33:50;;;;;;;29.92;18.83;;;9.10;99.90;;;;;;5068713;28;20517;-48
2021/10/11 03:36:16;;;;;;;33.55;20.05;;;9.10;99.90;;;;;;5068544;28;20068;-48
2021/10/11 03:38:41;;;;;;;33.90;19.88;;;9.10;99.90;;;;;;5068146;28;20496;-48
2021/10/11 03:41:07;;;;;;;32.90;19.50;;;9.20;99.90;;;;;;5068947;28;20056;-48
2021/10/11 03:43:32;;;;;;;37.58;21.23;;;9.20;99.90;;;;;;5068840;28;20582;-46
2021/10/11 03:45:58;;;;;;;34.00;20.00;;;9.20;99.90;;;;;;5068988;28;20039;-48
2021/10/11 03:48:24;;;;;;;36.28;20.20;;;9.20;99.90;;;;;;5067569;28;20063;-47
2021/10/11 03:50:49;;;;;;;33.83;20.67;;;9.20;99.90;;;;;;5068594;28;20025;-49
2021/10/11 03:53:16;;;;;;;35.00;20.85;;;9.20;99.90;;;;;;5068279;28;20032;-46
2021/10/11 03:55:42;;;;;;;37.55;20.80;;;9.30;99.90;;;;;;5068258;28;20073;-48
2021/10/11 03:58:08;;;;;;;34.80;21.42;;;9.30;99.90;;;;;;5067276;28;20090;-46
2021/10/11 04:00:33;;;;;;;35.92;21.88;;;9.30;99.90;;;;;;5050158;28;20037;-47
2021/10/11 04:03:02;;;;;;;37.33;22.23;;;9.30;99.90;;;;;;5041567;28;20040;-49
2021/10/11 04:05:28;;;;;;;30.13;18.27;;;9.30;99.90;;;;;;5066827;28;20112;-46
2021/10/11 04:07:55;;;;;;;41.20;23.33;;;9.30;99.90;;;;;;5049238;28;20169;-46
2021/10/11 04:10:27;;;;;;;41.97;25.02;;;9.30;99.90;;;;;;5049400;28;20028;-46
2021/10/11 04:12:57;;;;;;;40.17;23.80;;;9.30;99.90;;;;;;5068137;28;20043;-46
2021/10/11 04:15:22;;;;;;;41.85;24.40;;;9.30;99.90;;;;;;5067639;28;20025;-46
2021/10/11 04:17:48;;;;;;;43.08;25.52;;;9.30;99.90;;;;;;5067051;28;20052;-46
2021/10/11 04:20:14;;;;;;;40.10;25.38;;;9.30;99.90;;;;;;5067610;28;20031;-46
2021/10/11 04:22:40;;;;;;;46.13;28.00;;;9.20;99.90;;;;;;5067712;28;20531;-47
2021/10/11 04:25:06;;;;;;;49.08;27.98;;;9.10;99.90;;;;;;5067942;28;20214;-47
2021/10/11 04:27:32;;;;;;;47.80;28.50;;;9.10;99.90;;;;;;5067017;28;20052;-47
2021/10/11 04:29:57;;;;;;;51.35;31.25;;;9.00;99.90;;;;;;5049277;28;20032;-48
2021/10/11 04:32:23;;;;;;;56.60;32.78;;;8.90;99.90;;;;;;5067342;28;20037;-46
2021/10/11 04:34:48;;;;;;;55.83;31.45;;;8.90;99.90;;;;;;5067379;28;20029;-47
2021/10/11 04:37:14;;;;;;;57.33;33.20;;;8.80;99.90;;;;;;5066525;28;20051;-46
2021/10/11 04:39:39;;;;;;;54.97;32.85;;;8.80;99.90;;;;;;5067543;28;20036;-46
2021/10/11 04:42:04;;;;;;;60.28;34.80;;;8.70;99.90;;;;;;5067228;28;20123;-46
2021/10/11 04:44:30;;;;;;;62.30;35.63;;;8.70;99.90;;;;;;5067212;28;20637;-50
2021/10/11 04:46:55;;;;;;;62.95;36.03;;;8.70;99.90;;;;;;5066542;28;20036;-48
2021/10/11 04:49:21;;;;;;;70.25;38.20;;;8.60;99.90;;;;;;5066616;28;20037;-49
2021/10/11 04:51:46;;;;;;;66.80;37.90;;;8.60;99.90;;;;;;5067241;28;20115;-47
2021/10/11 04:54:14;;;;;;;66.10;36.05;;;8.60;99.90;;;;;;5067824;28;20109;-46
2021/10/11 04:56:40;;;;;;;68.93;37.60;;;8.50;99.90;;;;;;5067419;28;20025;-50
2021/10/11 04:59:06;;;;;;;68.95;36.63;;;8.50;99.90;;;;;;5066384;28;20145;-48
2021/10/11 05:01:31;;;;;;;67.13;36.15;;;8.60;99.90;;;;;;5066797;28;20090;-47
2021/10/11 05:03:57;;;;;;;66.72;36.85;;;8.60;99.90;;;;;;5069378;28;20038;-47
2021/10/11 05:06:22;;;;;;;63.70;36.53;;;8.60;99.90;;;;;;5055286;28;20041;-48
2021/10/11 05:08:48;;;;;;;67.88;38.80;;;8.70;99.90;;;;;;5064864;28;20044;-46
2021/10/11 05:11:13;;;;;;;61.10;35.70;;;8.60;99.90;;;;;;5066100;28;20478;-49
2021/10/11 05:13:39;;;;;;;65.40;36.85;;;8.70;99.90;;;;;;5067091;28;20083;-49
2021/10/11 05:16:11;;;;;;;67.57;38.05;;;8.70;99.90;;;;;;5067728;28;20397;-49
2021/10/11 05:18:37;;;;;;;63.28;36.28;;;8.70;99.90;;;;;;5046207;28;20478;-47
2021/10/11 05:21:04;;;;;;;70.97;37.88;;;8.70;99.90;;;;;;5064959;28;20020;-49
2021/10/11 05:23:30;;;;;;;76.80;38.50;;;8.80;99.90;;;;;;5057262;28;20025;-48
2021/10/11 05:25:56;;;;;;;69.55;38.35;;;8.80;99.90;;;;;;5062472;28;20179;-50
2021/10/11 05:28:22;;;;;;;68.82;36.92;;;8.80;99.90;;;;;;5060473;28;20040;-46
2021/10/11 05:30:49;;;;;;;72.70;40.42;;;8.80;99.90;;;;;;5058747;28;20041;-46
2021/10/11 05:33:19;;;;;;;65.53;37.42;;;8.80;99.90;;;;;;5061532;28;20032;-47
2021/10/11 05:35:45;;;;;;;73.65;40.40;;;8.80;99.90;;;;;;5065891;28;20043;-47
2021/10/11 05:38:11;;;;;;;73.78;38.65;;;8.80;99.90;;;;;;5061095;28;20528;-47
2021/10/11 05:40:36;;;;;;;81.18;41.92;;;8.80;99.90;;;;;;5067619;28;20124;-47
2021/10/11 05:43:02;;;;;;;73.25;37.47;;;8.80;99.90;;;;;;5068376;28;20064;-50
2021/10/11 05:45:28;;;;;;;70.68;39.33;;;8.80;99.90;;;;;;5068296;28;20119;-48
2021/10/11 05:47:54;;;;;;;70.65;39.90;;;8.90;99.90;;;;;;5067462;28;20036;-50
2021/10/11 05:50:20;;;;;;;76.60;40.20;;;8.80;99.90;;;;;;5068110;28;20047;-48
2021/10/11 05:52:46;;;;;;;81.95;42.70;;;8.80;99.90;;;;;;5067998;28;20025;-50
2021/10/11 05:55:11;;;;;;;80.15;38.92;;;8.90;99.90;;;;;;5071644;28;20032;-48
2021/10/11 05:57:37;;;;;;;92.72;43.17;;;8.90;99.90;;;;;;5071197;28;20029;-49
2021/10/11 06:00:06;;;;;;;83.88;42.05;;;8.90;99.90;;;;;;5053844;28;20055;-48
2021/10/11 06:02:32;;;;;;;87.80;44.05;;;8.90;99.90;;;;;;5069332;28;20080;-50
2021/10/11 06:04:57;;;;;;;87.22;42.55;;;9.00;99.90;;;;;;5071164;28;20828;-48
2021/10/11 06:07:23;;;;;;;99.68;47.20;;;9.00;99.90;;;;;;5071159;28;20041;-50
2021/10/11 06:09:48;;;;;;;96.03;44.33;;;9.00;99.90;;;;;;5071323;28;20367;-49
2021/10/11 06:12:14;;;;;;;95.53;46.65;;;9.10;99.90;;;;;;5071871;28;20043;-49
2021/10/11 06:14:39;;;;;;;105.18;47.55;;;9.10;99.90;;;;;;5071685;28;20610;-49
2021/10/11 06:17:05;;;;;;;94.75;44.22;;;9.10;99.90;;;;;;5070275;28;20029;-48
2021/10/11 06:19:30;;;;;;;112.82;48.95;;;9.20;99.90;;;;;;5071000;28;20041;-50
2021/10/11 06:21:56;;;;;;;116.25;50.30;;;9.20;99.90;;;;;;5071536;28;20122;-50
2021/10/11 06:24:21;;;;;;;105.95;45.13;;;9.20;99.90;;;;;;5071067;28;20050;-49
2021/10/11 06:26:47;;;;;;;100.03;45.80;;;9.30;99.90;;;;;;5070341;28;20047;-48
2021/10/11 06:29:12;;;;;;;116.82;49.38;;;9.30;99.90;;;;;;5068836;28;20453;-48
2021/10/11 06:31:38;;;;;;;108.93;47.80;;;9.30;99.90;;;;;;5069251;28;20037;-48
2021/10/11 06:34:03;;;;;;;115.88;49.40;;;9.30;99.90;;;;;;5063949;28;20062;-49
2021/10/11 06:36:34;;;;;;;111.55;48.88;;;9.30;99.90;;;;;;5068998;28;20103;-48
2021/10/11 06:38:59;;;;;;;117.38;51.55;;;9.40;99.90;;;;;;5068804;28;20028;-49
2021/10/11 06:41:25;;;;;;;131.90;55.25;;;9.40;99.90;;;;;;5069257;28;20036;-48
2021/10/11 06:43:50;;;;;;;129.13;54.47;;;9.40;99.90;;;;;;5069399;28;20787;-50
2021/10/11 06:46:16;;;;;;;126.13;53.05;;;9.50;99.90;;;;;;5068269;28;20036;-50
2021/10/11 06:48:41;;;;;;;138.10;55.83;;;9.50;99.90;;;;;;5068033;28;20071;-50
2021/10/11 06:51:07;;;;;;;140.43;56.63;;;9.50;99.90;;;;;;5069363;28;20040;-49
2021/10/11 06:53:32;;;;;;;133.10;56.88;;;9.50;99.90;;;;;;5069238;28;20398;-47
2021/10/11 06:55:58;;;;;;;144.05;57.95;;;9.50;99.90;;;;;;5068572;28;20037;-49
2021/10/11 06:58:23;;;;;;;124.10;51.55;;;9.60;99.90;;;;;;5068270;28;20059;-49
2021/10/11 07:00:49;;;;;;;139.02;57.38;;;9.60;99.90;;;;;;5069368;28;20059;-50
2021/10/11 07:03:15;;;;;;;131.40;55.47;;;9.60;99.90;;;;;;5068368;28;20047;-48
2021/10/11 07:05:41;;;;;;;144.32;58.50;;;9.70;99.90;;;;;;5068333;28;20261;-48
2021/10/11 07:08:10;;;;;;;133.25;57.22;;;9.70;99.90;;;;;;5067924;28;20547;-50
2021/10/11 07:10:36;;;;;;;129.32;54.35;;;9.70;99.90;;;;;;5068603;28;20068;-48
2021/10/11 07:13:02;;;;;;;139.68;54.38;;;9.80;99.90;;;;;;5068703;28;20032;-48
2021/10/11 07:15:29;;;;;;;127.85;54.95;;;9.80;99.90;;;;;;5069399;28;20532;-49
2021/10/11 07:17:55;;;;;;;144.77;58.50;;;9.80;99.90;;;;;;5069007;28;20078;-48
2021/10/11 07:20:22;;;;;;;134.38;56.38;;;9.90;99.90;;;;;;5070336;28;20029;-50
2021/10/11 07:22:48;;;;;;;138.98;55.05;;;9.90;99.90;;;;;;5049852;28;20040;-47
2021/10/11 07:25:13;;;;;;;137.95;57.90;;;9.90;99.90;;;;;;5069644;28;20041;-48
2021/10/11 07:27:39;;;;;;;134.15;53.88;;;9.90;99.90;;;;;;5064074;28;20032;-49
2021/10/11 07:30:05;;;;;;;130.27;57.05;;;10.00;99.90;;;;;;5070780;28;20419;-47
2021/10/11 07:32:31;;;;;;;123.68;53.83;;;10.00;99.90;;;;;;5067317;28;20079;-48
2021/10/11 07:34:56;;;;;;;116.90;51.03;;;10.00;99.90;;;;;;5068504;28;20047;-48
2021/10/11 07:37:22;;;;;;;143.65;56.65;;;10.00;99.90;;;;;;5068252;28;20039;-52
2021/10/11 07:39:47;;;;;;;129.30;53.65;;;10.00;99.90;;;;;;5069197;28;20050;-51
2021/10/11 07:42:13;;;;;;;118.55;51.88;;;10.00;99.90;;;;;;5069687;28;20028;-49
2021/10/11 07:44:40;;;;;;;134.85;55.85;;;10.00;99.90;;;;;;5067475;28;20108;-49
2021/10/11 07:47:05;;;;;;;128.40;55.63;;;10.00;99.90;;;;;;5068759;28;20043;-49
2021/10/11 07:49:31;;;;;;;119.57;53.53;;;10.00;99.90;;;;;;5050901;28;20033;-50
2021/10/11 07:51:56;;;;;;;123.28;53.95;;;10.10;99.90;;;;;;5069741;28;20033;-49
2021/10/11 07:54:22;;;;;;;123.28;52.90;;;10.10;99.90;;;;;;5051578;28;20567;-49
2021/10/11 07:56:48;;;;;;;131.55;52.10;;;10.10;99.90;;;;;;5069626;28;20024;-50
2021/10/11 07:59:14;;;;;;;137.90;54.65;;;10.20;99.90;;;;;;5068709;28;20048;-51
2021/10/11 08:01:40;;;;;;;137.13;56.05;;;10.30;99.90;;;;;;5069586;28;20509;-50
2021/10/11 08:04:05;;;;;;;112.82;51.67;;;10.40;99.90;;;;;;5068437;28;20036;-48
2021/10/11 08:06:33;;;;;;;132.00;54.22;;;10.50;99.90;;;;;;5069508;28;20040;-51
2021/10/11 08:08:59;;;;;;;117.95;51.03;;;10.60;99.90;;;;;;5068155;28;20044;-51
2021/10/11 08:11:25;;;;;;;127.68;54.35;;;10.60;99.90;;;;;;5050903;28;20682;-49
2021/10/11 08:13:50;;;;;;;118.43;52.97;;;10.60;99.90;;;;;;5069216;28;20134;-51
2021/10/11 08:16:16;;;;;;;111.13;50.08;;;10.60;99.90;;;;;;5068275;28;20367;-49
2021/10/11 08:18:41;;;;;;;111.75;50.67;;;10.60;99.90;;;;;;5068090;28;20040;-50
2021/10/11 08:21:07;;;;;;;121.53;52.28;;;10.60;99.90;;;;;;5067871;28;20028;-50
2021/10/11 08:23:36;;;;;;;124.15;51.20;;;10.50;99.90;;;;;;5069334;28;20141;-50
2021/10/11 08:26:07;;;;;;;117.88;51.40;;;10.50;99.90;;;;;;5068579;28;20028;-48
2021/10/11 08:28:33;;;;;;;121.50;51.47;;;10.50;99.90;;;;;;5068348;28;20025;-52
2021/10/11 08:30:58;;;;;;;106.15;48.63;;;10.50;99.90;;;;;;5068165;28;20656;-50
2021/10/11 08:33:24;;;;;;;108.65;46.60;;;10.50;99.90;;;;;;5064793;28;20628;-49
2021/10/11 08:35:49;;;;;;;100.90;46.03;;;10.50;99.90;;;;;;5068011;28;20074;-50
2021/10/11 08:38:15;;;;;;;98.60;44.40;;;10.50;99.90;;;;;;5067935;28;20037;-50
2021/10/11 08:40:41;;;;;;;97.32;41.90;;;10.60;99.90;;;;;;5068803;28;20041;-50
2021/10/11 08:43:07;;;;;;;87.03;37.80;;;10.70;99.90;;;;;;5068619;28;20040;-50
2021/10/11 08:45:32;;;;;;;86.10;37.15;;;10.70;99.90;;;;;;5068494;28;20119;-47
2021/10/11 08:47:57;;;;;;;67.25;31.95;;;10.80;99.90;;;;;;5067115;28;20063;-50
2021/10/11 08:50:23;;;;;;;65.60;31.40;;;10.80;99.90;;;;;;5050595;28;20072;-49
2021/10/11 08:52:50;;;;;;;66.82;31.92;;;10.90;99.90;;;;;;5068578;28;20033;-48
2021/10/11 08:55:16;;;;;;;71.00;32.03;;;11.00;99.90;;;;;;5065167;28;20032;-49
2021/10/11 08:57:41;;;;;;;66.13;28.88;;;11.10;99.90;;;;;;5067878;28;20383;-49
2021/10/11 09:00:07;;;;;;;54.03;26.63;;;11.10;99.90;;;;;;5067862;28;20048;-50
2021/10/11 09:02:33;;;;;;;49.53;22.83;;;11.20;99.90;;;;;;5067263;28;20033;-50
2021/10/11 09:04:58;;;;;;;48.53;20.98;;;11.20;99.90;;;;;;5067594;28;20115;-50
2021/10/11 09:07:26;;;;;;;44.17;20.27;;;11.30;99.90;;;;;;5067602;28;20470;-51
2021/10/11 09:09:53;;;;;;;41.47;20.45;;;11.40;99.90;;;;;;5067825;28;20029;-51
2021/10/11 09:12:21;;;;;;;39.20;19.40;;;11.50;99.90;;;;;;5067532;28;20047;-49
2021/10/11 09:15:02;;;;;;;37.35;20.02;;;11.50;99.90;;;;;;5068195;28;20355;-52
2021/10/11 09:17:31;;;;;;;;;;;11.60;99.90;;;;;;5048742;28;20024;-51
2021/10/11 09:20:11;;;;;;;41.92;19.95;;;11.70;99.90;;;;;;5067307;28;20025;-48
2021/10/11 09:22:38;;;;;;;39.63;20.95;;;11.80;99.90;;;;;;5066050;28;20027;-49
2021/10/11 09:25:06;;;;;;;35.05;17.65;;;11.80;99.90;;;;;;5067592;28;20043;-49
2021/10/11 09:27:52;;;;;;;35.30;18.05;;;11.90;99.90;;;;;;5068633;28;20028;-47
2021/10/11 09:30:24;;;;;;;36.63;19.10;;;11.90;99.90;;;;;;5071594;28;20086;-49
2021/10/11 09:32:49;;;;;;;35.30;18.50;;;11.90;99.90;;;;;;5071348;28;20090;-49
2021/10/11 09:35:20;;;;;;;38.20;18.88;;;12.00;99.90;;;;;;5071684;28;20040;-51
2021/10/11 09:37:52;;;;;;;34.92;18.20;;;12.00;99.90;;;;;;5071062;28;20107;-50
2021/10/11 09:40:20;;;;;;;35.35;20.42;;;12.10;99.90;;;;;;5069188;28;20028;-50
2021/10/11 09:42:47;;;;;;;40.20;21.60;;;12.10;99.90;;;;;;5054179;28;20033;-50
2021/10/11 09:45:12;;;;;;;47.17;23.40;;;12.10;99.90;;;;;;5071260;28;20039;-51
2021/10/11 09:47:44;;;;;;;44.25;22.95;;;12.20;99.90;;;;;;5070803;28;20036;-49
2021/10/11 09:50:17;;;;;;;54.65;24.58;;;12.10;99.90;;;;;;5071449;28;20040;-50
2021/10/11 09:52:43;;;;;;;57.17;27.42;;;12.20;99.90;;;;;;5051532;28;20036;-51
2021/10/11 09:55:11;;;;;;;39.90;22.02;;;12.10;99.90;;;;;;5071596;28;20032;-51
2021/10/11 09:57:36;;;;;;;51.13;25.48;;;12.20;99.90;;;;;;5052785;28;20055;-51
2021/10/11 10:00:08;;;;;;;53.80;25.83;;;12.20;99.90;;;;;;5070386;28;20400;-51
2021/10/11 10:02:36;;;;;;;48.75;27.20;;;12.30;99.90;;;;;;5067730;28;20478;-49
2021/10/11 10:05:04;;;;;;;46.28;24.23;;;12.60;99.90;;;;;;5051826;28;20588;-51
2021/10/11 10:07:34;;;;;;;39.45;23.05;;;13.10;99.90;;;;;;5068601;28;20170;-51
2021/10/11 10:10:02;;;;;;;38.70;20.25;;;14.20;99.90;;;;;;5068633;28;20030;-48
2021/10/11 10:12:28;;;;;;;35.80;20.05;;;15.00;99.90;;;;;;5069373;28;20039;-51
2021/10/11 10:15:03;;;;;;;33.75;16.85;;;15.70;99.90;;;;;;5070035;28;20029;-51
2021/10/11 10:17:30;;;;;;;29.13;17.08;;;16.70;99.90;;;;;;5069527;28;20024;-51
2021/10/11 10:20:03;;;;;;;29.30;18.23;;;17.60;99.90;;;;;;5052240;28;20557;-51
2021/10/11 10:22:29;;;;;;;31.92;16.27;;;17.90;99.90;;;;;;5069761;28;20051;-51
2021/10/11 10:25:07;;;;;;;25.00;15.23;;;18.70;99.90;;;;;;5070129;28;20119;-51
2021/10/11 10:27:38;;;;;;;24.02;14.50;;;18.60;99.90;;;;;;5068961;28;20041;-50
2021/10/11 10:30:17;;;;;;;26.35;15.75;;;18.00;99.90;;;;;;5051707;28;20068;-51
2021/10/11 10:32:52;;;;;;;18.83;12.77;;;17.90;99.90;;;;;;5065914;28;20029;-51
2021/10/11 10:35:19;;;;;;;24.20;13.07;;;18.60;99.90;;;;;;5068475;28;20075;-51
2021/10/11 10:37:44;;;;;;;20.85;12.27;;;19.60;99.90;;;;;;5067694;28;20297;-51
2021/10/11 10:40:14;;;;;;;18.50;11.15;;;20.20;99.50;;;;;;5067580;28;20040;-50
2021/10/11 10:42:40;;;;;;;25.75;12.05;;;19.80;99.90;;;;;;5067792;28;20033;-49
2021/10/11 10:45:19;;;;;;;19.23;10.50;;;19.40;99.90;;;;;;5067374;28;20045;-51
2021/10/11 10:47:46;;;;;;;17.63;9.55;;;19.00;99.90;;;;;;5066352;28;20124;-51
2021/10/11 10:50:15;;;;;;;23.27;11.00;;;18.40;99.90;;;;;;5067736;28;20078;-51
2021/10/11 10:52:41;;;;;;;18.80;9.82;;;18.10;99.90;;;;;;5067946;28;20029;-51
2021/10/11 10:55:07;;;;;;;18.45;9.07;;;17.80;99.90;;;;;;5067707;28;20054;-50
2021/10/11 10:57:33;;;;;;;20.45;9.43;;;17.40;99.90;;;;;;5067145;28;20072;-51
2021/10/11 11:00:01;;;;;;;18.60;8.50;;;18.60;99.90;;;;;;5031140;28;1068458;-51
2021/10/11 11:02:28;;;;;;;17.17;8.75;;;20.20;99.90;;;;;;5068096;28;20051;-52
2021/10/11 11:04:57;;;;;;;12.57;7.13;;;21.30;96.30;;;;;;5068032;28;20055;-52
2021/10/11 11:07:27;;;;;;;12.50;7.53;;;22.20;97.10;;;;;;5067196;28;20036;-52
2021/10/11 11:09:54;;;;;;;15.65;6.35;;;23.80;89.40;;;;;;5065490;28;20510;-52
2021/10/11 11:12:29;;;;;;;13.45;7.13;;;24.50;86.60;;;;;;5067818;28;20541;-52
2021/10/11 11:14:56;;;;;;;12.05;5.63;;;24.50;82.20;;;;;;5066178;28;20128;-52
2021/10/11 11:17:33;;;;;;;12.32;6.05;;;25.30;76.90;;;;;;5066833;28;20099;-50
2021/10/11 11:19:59;;;;;;;11.02;6.10;;;25.70;75.50;;;;;;5067004;28;20048;-52
2021/10/11 11:22:30;;;;;;;16.55;6.75;;;25.90;74.80;;;;;;5068591;28;20040;-52
2021/10/11 11:25:00;;;;;;;14.95;6.32;;;25.70;73.10;;;;;;5068451;28;20119;-52
2021/10/11 11:27:34;;;;;;;13.85;5.43;;;26.00;70.90;;;;;;5047533;28;20025;-50
2021/10/11 11:30:06;;;;;;;13.07;5.35;;;26.20;70.00;;;;;;5049786;28;20098;-50
2021/10/11 11:32:36;;;;;;;10.07;4.72;;;26.00;65.50;;;;;;5065025;28;20040;-50
2021/10/11 11:35:02;;;;;;;11.80;5.05;;;26.10;67.20;;;;;;5066237;28;21100;-50
2021/10/11 11:37:28;;;;;;;10.38;4.45;;;26.10;68.00;;;;;;5066836;28;20314;-50
2021/10/11 11:40:04;;;;;;;15.30;4.70;;;26.20;66.90;;;;;;5067978;28;20032;-50
2021/10/11 11:42:30;;;;;;;9.77;4.75;;;25.60;64.20;;;;;;5068320;28;20047;-50
2021/10/11 11:44:56;;;;;;;13.77;4.97;;;25.70;70.80;;;;;;5069544;28;20037;-51
2021/10/11 11:47:27;;;;;;;9.77;5.13;;;26.40;66.30;;;;;;5065686;28;20111;-51
2021/10/11 11:49:53;;;;;;;8.95;3.83;;;25.90;64.90;;;;;;5068114;28;20043;-51
2021/10/11 11:52:19;;;;;;;10.30;4.53;;;25.60;66.00;;;;;;5067926;28;20040;-53
2021/10/11 11:55:07;;;;;;;7.65;3.58;;;25.90;66.50;;;;;;5069143;28;20414;-51
2021/10/11 11:57:41;;;;;;;7.28;2.88;;;26.20;65.20;;;;;;5065522;28;20040;-53
2021/10/11 12:00:07;;;;;;;9.60;4.00;;;26.70;61.10;;;;;;5068205;28;20047;-52
2021/10/11 12:02:36;;;;;;;9.90;3.00;;;26.50;64.20;;;;;;5049251;28;20055;-53
2021/10/11 12:05:02;;;;;;;8.70;3.38;;;26.10;62.50;;;;;;5067129;28;20090;-52
2021/10/11 12:07:28;;;;;;;11.35;3.53;;;26.40;61.40;;;;;;5048380;28;20028;-52
2021/10/11 12:09:53;;;;;;;11.00;3.25;;;26.50;63.00;;;;;;5067106;28;20051;-52
2021/10/11 12:12:19;;;;;;;9.45;3.28;;;25.90;59.80;;;;;;5067330;28;20033;-52
2021/10/11 12:14:49;;;;;;;7.43;3.13;;;24.70;62.00;;;;;;5067858;28;20033;-51
2021/10/11 12:17:15;;;;;;;9.63;3.65;;;23.40;67.80;;;;;;5067781;28;20028;-51
2021/10/11 12:19:41;;;;;;;9.02;3.38;;;22.40;68.10;;;;;;5068455;28;20033;-52
2021/10/11 12:22:06;;;;;;;8.60;3.20;;;21.80;69.30;;;;;;5068577;28;20109;-51
2021/10/11 12:24:32;;;;;;;12.68;3.10;;;21.40;70.60;;;;;;5068506;28;20076;-51
2021/10/11 12:27:06;;;;;;;8.52;3.40;;;20.80;71.30;;;;;;5068398;28;20041;-51
2021/10/11 12:29:35;;;;;;;6.65;3.30;;;20.10;74.70;;;;;;5068014;28;20099;-51
2021/10/11 12:32:06;;;;;;;14.52;3.63;;;19.70;74.30;;;;;;5066322;28;20556;-51